sensor_id;sensor_type;location;lat;lon;timestamp;P1;durP1;ratioP1;P2;durP2;ratioP2
8592;SDS011;4334;49.982;8.398;2024-02-26T00:01:02;1.57;;;1.40;;
8592;SDS011;4334;49.982;8.398;2024-02-26T00:03:29;1.77;;;1.50;;
8592;SDS011;4334;49.982;8.398;2024-02-26T00:05:58;2.20;;;1.50;;
8592;SDS011;4334;49.982;8.398;2024-02-26T00:08:25;2.20;;;1.57;;
8592;SDS011;4334;49.982;8.398;2024-02-26T00:10:52;1.50;;;1.40;;
8592;SDS011;4334;49.982;8.398;2024-02-26T00:13:18;2.73;;;1.47;;
8592;SDS011;4334;49.982;8.398;2024-02-26T00:15:47;2.57;;;1.70;;
8592;SDS011;4334;49.982;8.398;2024-02-26T00:18:14;1.50;;;1.40;;
8592;SDS011;4334;49.982;8.398;2024-02-26T00:20:40;1.60;;;1.30;;
8592;SDS011;4334;49.982;8.398;2024-02-26T00:23:09;2.77;;;1.50;;
8592;SDS011;4334;49.982;8.398;2024-02-26T00:25:36;2.40;;;1.50;;
8592;SDS011;4334;49.982;8.398;2024-02-26T00:28:03;1.63;;;1.33;;
8592;SDS011;4334;49.982;8.398;2024-02-26T00:30:30;2.20;;;1.60;;
8592;SDS011;4334;49.982;8.398;2024-02-26T00:32:57;2.13;;;1.50;;
8592;SDS011;4334;49.982;8.398;2024-02-26T00:35:24;2.73;;;1.80;;
8592;SDS011;4334;49.982;8.398;2024-02-26T00:37:50;1.97;;;1.40;;
8592;SDS011;4334;49.982;8.398;2024-02-26T00:40:19;2.53;;;1.77;;
8592;SDS011;4334;49.982;8.398;2024-02-26T00:42:45;2.17;;;1.50;;
8592;SDS011;4334;49.982;8.398;2024-02-26T00:45:13;2.17;;;1.30;;
8592;SDS011;4334;49.982;8.398;2024-02-26T00:47:39;2.13;;;1.47;;
8592;SDS011;4334;49.982;8.398;2024-02-26T00:50:07;2.10;;;1.40;;
8592;SDS011;4334;49.982;8.398;2024-02-26T00:52:34;4.60;;;1.60;;
8592;SDS011;4334;49.982;8.398;2024-02-26T00:55:01;1.90;;;1.40;;
8592;SDS011;4334;49.982;8.398;2024-02-26T00:57:29;1.87;;;1.30;;
8592;SDS011;4334;49.982;8.398;2024-02-26T00:59:56;2.33;;;1.17;;
8592;SDS011;4334;49.982;8.398;2024-02-26T01:02:24;2.13;;;1.53;;
8592;SDS011;4334;49.982;8.398;2024-02-26T01:04:50;2.67;;;1.50;;
8592;SDS011;4334;49.982;8.398;2024-02-26T01:07:17;1.87;;;1.43;;
8592;SDS011;4334;49.982;8.398;2024-02-26T01:09:45;1.50;;;1.40;;
8592;SDS011;4334;49.982;8.398;2024-02-26T01:12:11;2.37;;;1.43;;
8592;SDS011;4334;49.982;8.398;2024-02-26T01:14:39;3.30;;;1.50;;
8592;SDS011;4334;49.982;8.398;2024-02-26T01:17:06;1.57;;;1.30;;
8592;SDS011;4334;49.982;8.398;2024-02-26T01:19:33;1.87;;;1.43;;
8592;SDS011;4334;49.982;8.398;2024-02-26T01:21:59;1.87;;;1.50;;
8592;SDS011;4334;49.982;8.398;2024-02-26T01:24:26;2.40;;;1.50;;
8592;SDS011;4334;49.982;8.398;2024-02-26T01:26:53;2.53;;;1.50;;
8592;SDS011;4334;49.982;8.398;2024-02-26T01:29:19;1.77;;;1.40;;
8592;SDS011;4334;49.982;8.398;2024-02-26T01:31:47;2.07;;;1.67;;
8592;SDS011;4334;49.982;8.398;2024-02-26T01:34:14;2.67;;;1.80;;
8592;SDS011;4334;49.982;8.398;2024-02-26T01:36:42;2.00;;;1.60;;
8592;SDS011;4334;49.982;8.398;2024-02-26T01:39:09;1.50;;;1.40;;
8592;SDS011;4334;49.982;8.398;2024-02-26T01:41:37;3.57;;;1.70;;
8592;SDS011;4334;49.982;8.398;2024-02-26T01:44:04;1.77;;;1.60;;
8592;SDS011;4334;49.982;8.398;2024-02-26T01:46:31;2.60;;;1.57;;
8592;SDS011;4334;49.982;8.398;2024-02-26T01:49:01;2.20;;;1.70;;
8592;SDS011;4334;49.982;8.398;2024-02-26T01:51:28;3.03;;;1.70;;
8592;SDS011;4334;49.982;8.398;2024-02-26T01:53:57;4.27;;;1.70;;
8592;SDS011;4334;49.982;8.398;2024-02-26T01:56:25;2.23;;;1.60;;
8592;SDS011;4334;49.982;8.398;2024-02-26T01:58:55;3.27;;;1.40;;
8592;SDS011;4334;49.982;8.398;2024-02-26T02:01:23;1.77;;;1.60;;
8592;SDS011;4334;49.982;8.398;2024-02-26T02:03:53;1.80;;;1.60;;
8592;SDS011;4334;49.982;8.398;2024-02-26T02:06:22;3.00;;;1.50;;
8592;SDS011;4334;49.982;8.398;2024-02-26T02:08:49;1.70;;;1.50;;
8592;SDS011;4334;49.982;8.398;2024-02-26T02:11:16;2.93;;;1.50;;
8592;SDS011;4334;49.982;8.398;2024-02-26T02:13:43;2.10;;;1.63;;
8592;SDS011;4334;49.982;8.398;2024-02-26T02:16:10;1.63;;;1.50;;
8592;SDS011;4334;49.982;8.398;2024-02-26T02:18:36;2.17;;;1.60;;
8592;SDS011;4334;49.982;8.398;2024-02-26T02:21:05;2.83;;;1.70;;
8592;SDS011;4334;49.982;8.398;2024-02-26T02:23:31;3.00;;;2.10;;
8592;SDS011;4334;49.982;8.398;2024-02-26T02:25:58;1.93;;;1.50;;
8592;SDS011;4334;49.982;8.398;2024-02-26T02:28:25;2.67;;;1.73;;
8592;SDS011;4334;49.982;8.398;2024-02-26T02:30:53;2.00;;;1.50;;
8592;SDS011;4334;49.982;8.398;2024-02-26T02:33:20;2.13;;;1.63;;
8592;SDS011;4334;49.982;8.398;2024-02-26T02:35:47;2.73;;;2.03;;
8592;SDS011;4334;49.982;8.398;2024-02-26T02:38:17;1.70;;;1.60;;
8592;SDS011;4334;49.982;8.398;2024-02-26T02:40:43;1.93;;;1.50;;
8592;SDS011;4334;49.982;8.398;2024-02-26T02:43:10;2.57;;;1.70;;
8592;SDS011;4334;49.982;8.398;2024-02-26T02:45:37;2.03;;;1.43;;
8592;SDS011;4334;49.982;8.398;2024-02-26T02:48:04;2.43;;;1.60;;
8592;SDS011;4334;49.982;8.398;2024-02-26T02:50:31;3.47;;;1.60;;
8592;SDS011;4334;49.982;8.398;2024-02-26T02:52:57;2.77;;;1.63;;
8592;SDS011;4334;49.982;8.398;2024-02-26T02:55:25;2.33;;;1.63;;
8592;SDS011;4334;49.982;8.398;2024-02-26T02:57:52;2.17;;;1.53;;
8592;SDS011;4334;49.982;8.398;2024-02-26T03:00:19;2.30;;;1.60;;
8592;SDS011;4334;49.982;8.398;2024-02-26T03:02:47;3.10;;;1.80;;
8592;SDS011;4334;49.982;8.398;2024-02-26T03:05:14;2.83;;;1.77;;
8592;SDS011;4334;49.982;8.398;2024-02-26T03:07:40;2.13;;;1.73;;
8592;SDS011;4334;49.982;8.398;2024-02-26T03:10:07;2.13;;;1.60;;
8592;SDS011;4334;49.982;8.398;2024-02-26T03:12:35;2.57;;;1.70;;
8592;SDS011;4334;49.982;8.398;2024-02-26T03:15:02;1.97;;;1.43;;
8592;SDS011;4334;49.982;8.398;2024-02-26T03:17:29;1.70;;;1.47;;
8592;SDS011;4334;49.982;8.398;2024-02-26T03:19:56;3.23;;;1.70;;
8592;SDS011;4334;49.982;8.398;2024-02-26T03:22:23;2.40;;;1.47;;
8592;SDS011;4334;49.982;8.398;2024-02-26T03:24:49;1.33;;;1.20;;
8592;SDS011;4334;49.982;8.398;2024-02-26T03:27:16;1.80;;;1.50;;
8592;SDS011;4334;49.982;8.398;2024-02-26T03:29:44;3.13;;;1.80;;
8592;SDS011;4334;49.982;8.398;2024-02-26T03:32:11;2.27;;;1.53;;
8592;SDS011;4334;49.982;8.398;2024-02-26T03:34:37;2.00;;;1.50;;
8592;SDS011;4334;49.982;8.398;2024-02-26T03:37:05;2.00;;;1.53;;
8592;SDS011;4334;49.982;8.398;2024-02-26T03:39:32;2.47;;;1.70;;
8592;SDS011;4334;49.982;8.398;2024-02-26T03:41:59;2.10;;;1.70;;
8592;SDS011;4334;49.982;8.398;2024-02-26T03:44:26;2.30;;;1.80;;
8592;SDS011;4334;49.982;8.398;2024-02-26T03:46:54;2.27;;;1.60;;
8592;SDS011;4334;49.982;8.398;2024-02-26T03:49:20;2.30;;;1.83;;
8592;SDS011;4334;49.982;8.398;2024-02-26T03:51:47;3.40;;;1.97;;
8592;SDS011;4334;49.982;8.398;2024-02-26T03:54:14;1.97;;;1.50;;
8592;SDS011;4334;49.982;8.398;2024-02-26T03:56:41;3.03;;;1.70;;
8592;SDS011;4334;49.982;8.398;2024-02-26T03:59:07;2.20;;;1.80;;
8592;SDS011;4334;49.982;8.398;2024-02-26T04:01:34;2.20;;;1.83;;
8592;SDS011;4334;49.982;8.398;2024-02-26T04:04:02;2.53;;;1.70;;
8592;SDS011;4334;49.982;8.398;2024-02-26T04:06:29;3.27;;;1.97;;
8592;SDS011;4334;49.982;8.398;2024-02-26T04:08:57;2.50;;;1.73;;
8592;SDS011;4334;49.982;8.398;2024-02-26T04:11:23;2.63;;;1.93;;
8592;SDS011;4334;49.982;8.398;2024-02-26T04:13:50;4.60;;;1.80;;
8592;SDS011;4334;49.982;8.398;2024-02-26T04:16:17;2.70;;;1.87;;
8592;SDS011;4334;49.982;8.398;2024-02-26T04:18:44;3.97;;;1.80;;
8592;SDS011;4334;49.982;8.398;2024-02-26T04:21:12;2.03;;;1.83;;
8592;SDS011;4334;49.982;8.398;2024-02-26T04:23:38;4.67;;;2.00;;
8592;SDS011;4334;49.982;8.398;2024-02-26T04:26:05;2.33;;;1.87;;
8592;SDS011;4334;49.982;8.398;2024-02-26T04:28:32;2.70;;;1.77;;
8592;SDS011;4334;49.982;8.398;2024-02-26T04:30:58;2.37;;;1.97;;
8592;SDS011;4334;49.982;8.398;2024-02-26T04:33:25;2.37;;;1.97;;
8592;SDS011;4334;49.982;8.398;2024-02-26T04:35:52;3.37;;;2.20;;
8592;SDS011;4334;49.982;8.398;2024-02-26T04:38:20;2.80;;;2.13;;
8592;SDS011;4334;49.982;8.398;2024-02-26T04:40:47;5.97;;;2.20;;
8592;SDS011;4334;49.982;8.398;2024-02-26T04:43:14;2.57;;;2.00;;
8592;SDS011;4334;49.982;8.398;2024-02-26T04:45:42;2.47;;;2.10;;
8592;SDS011;4334;49.982;8.398;2024-02-26T04:48:09;3.93;;;2.07;;
8592;SDS011;4334;49.982;8.398;2024-02-26T04:50:36;2.67;;;2.00;;
8592;SDS011;4334;49.982;8.398;2024-02-26T04:53:02;7.13;;;2.20;;
8592;SDS011;4334;49.982;8.398;2024-02-26T04:55:31;3.57;;;2.40;;
8592;SDS011;4334;49.982;8.398;2024-02-26T04:57:57;2.60;;;2.07;;
8592;SDS011;4334;49.982;8.398;2024-02-26T05:00:24;5.80;;;2.40;;
8592;SDS011;4334;49.982;8.398;2024-02-26T05:02:51;3.27;;;2.00;;
8592;SDS011;4334;49.982;8.398;2024-02-26T05:05:17;3.63;;;2.47;;
8592;SDS011;4334;49.982;8.398;2024-02-26T05:07:44;3.07;;;2.40;;
8592;SDS011;4334;49.982;8.398;2024-02-26T05:10:11;4.03;;;2.53;;
8592;SDS011;4334;49.982;8.398;2024-02-26T05:12:39;5.33;;;2.30;;
8592;SDS011;4334;49.982;8.398;2024-02-26T05:15:08;3.23;;;2.23;;
8592;SDS011;4334;49.982;8.398;2024-02-26T05:17:35;3.40;;;2.00;;
8592;SDS011;4334;49.982;8.398;2024-02-26T05:20:02;3.33;;;2.20;;
8592;SDS011;4334;49.982;8.398;2024-02-26T05:22:32;3.83;;;2.43;;
8592;SDS011;4334;49.982;8.398;2024-02-26T05:24:59;3.97;;;2.70;;
8592;SDS011;4334;49.982;8.398;2024-02-26T05:27:26;8.23;;;2.63;;
8592;SDS011;4334;49.982;8.398;2024-02-26T05:29:54;4.10;;;2.50;;
8592;SDS011;4334;49.982;8.398;2024-02-26T05:32:21;5.57;;;2.67;;
8592;SDS011;4334;49.982;8.398;2024-02-26T05:34:48;3.53;;;2.47;;
8592;SDS011;4334;49.982;8.398;2024-02-26T05:37:14;4.27;;;2.60;;
8592;SDS011;4334;49.982;8.398;2024-02-26T05:39:41;4.37;;;2.80;;
8592;SDS011;4334;49.982;8.398;2024-02-26T05:42:08;4.07;;;2.50;;
8592;SDS011;4334;49.982;8.398;2024-02-26T05:44:35;3.80;;;2.60;;
8592;SDS011;4334;49.982;8.398;2024-02-26T05:47:03;4.20;;;2.60;;
8592;SDS011;4334;49.982;8.398;2024-02-26T05:49:30;3.03;;;2.40;;
8592;SDS011;4334;49.982;8.398;2024-02-26T05:51:57;4.20;;;2.47;;
8592;SDS011;4334;49.982;8.398;2024-02-26T05:54:24;3.60;;;2.50;;
8592;SDS011;4334;49.982;8.398;2024-02-26T05:56:50;5.87;;;2.63;;
8592;SDS011;4334;49.982;8.398;2024-02-26T05:59:17;4.53;;;3.00;;
8592;SDS011;4334;49.982;8.398;2024-02-26T06:01:44;3.83;;;2.63;;
8592;SDS011;4334;49.982;8.398;2024-02-26T06:04:12;2.83;;;2.20;;
8592;SDS011;4334;49.982;8.398;2024-02-26T06:06:38;3.27;;;2.40;;
8592;SDS011;4334;49.982;8.398;2024-02-26T06:09:05;5.13;;;3.00;;
8592;SDS011;4334;49.982;8.398;2024-02-26T06:11:32;3.30;;;2.60;;
8592;SDS011;4334;49.982;8.398;2024-02-26T06:13:58;3.87;;;2.90;;
8592;SDS011;4334;49.982;8.398;2024-02-26T06:16:25;5.17;;;2.67;;
8592;SDS011;4334;49.982;8.398;2024-02-26T06:18:52;6.00;;;3.13;;
8592;SDS011;4334;49.982;8.398;2024-02-26T06:21:20;4.20;;;2.53;;
8592;SDS011;4334;49.982;8.398;2024-02-26T06:23:47;4.63;;;3.20;;
8592;SDS011;4334;49.982;8.398;2024-02-26T06:26:14;7.40;;;3.83;;
8592;SDS011;4334;49.982;8.398;2024-02-26T06:28:41;4.10;;;2.77;;
8592;SDS011;4334;49.982;8.398;2024-02-26T06:31:07;4.57;;;3.37;;
8592;SDS011;4334;49.982;8.398;2024-02-26T06:33:34;4.40;;;2.80;;
8592;SDS011;4334;49.982;8.398;2024-02-26T06:36:01;5.80;;;3.10;;
8592;SDS011;4334;49.982;8.398;2024-02-26T06:38:29;6.93;;;3.10;;
8592;SDS011;4334;49.982;8.398;2024-02-26T06:40:56;6.63;;;3.43;;
8592;SDS011;4334;49.982;8.398;2024-02-26T06:43:23;3.53;;;2.63;;
8592;SDS011;4334;49.982;8.398;2024-02-26T06:45:49;5.27;;;3.40;;
8592;SDS011;4334;49.982;8.398;2024-02-26T06:48:16;6.30;;;3.23;;
8592;SDS011;4334;49.982;8.398;2024-02-26T06:50:43;4.60;;;3.20;;
8592;SDS011;4334;49.982;8.398;2024-02-26T06:53:09;4.63;;;3.03;;
8592;SDS011;4334;49.982;8.398;2024-02-26T06:55:37;5.83;;;3.70;;
8592;SDS011;4334;49.982;8.398;2024-02-26T06:58:05;6.83;;;3.93;;
8592;SDS011;4334;49.982;8.398;2024-02-26T07:00:32;6.27;;;3.57;;
8592;SDS011;4334;49.982;8.398;2024-02-26T07:02:58;9.60;;;3.70;;
8592;SDS011;4334;49.982;8.398;2024-02-26T07:05:25;6.80;;;3.60;;
8592;SDS011;4334;49.982;8.398;2024-02-26T07:07:52;5.33;;;3.20;;
8592;SDS011;4334;49.982;8.398;2024-02-26T07:10:19;5.37;;;3.33;;
8592;SDS011;4334;49.982;8.398;2024-02-26T07:12:47;6.20;;;3.47;;
8592;SDS011;4334;49.982;8.398;2024-02-26T07:15:14;5.53;;;3.67;;
8592;SDS011;4334;49.982;8.398;2024-02-26T07:17:41;9.00;;;3.83;;
8592;SDS011;4334;49.982;8.398;2024-02-26T07:20:12;5.60;;;4.00;;
8592;SDS011;4334;49.982;8.398;2024-02-26T07:22:39;13.73;;;4.00;;
8592;SDS011;4334;49.982;8.398;2024-02-26T07:25:07;5.47;;;3.77;;
8592;SDS011;4334;49.982;8.398;2024-02-26T07:27:38;7.83;;;3.70;;
8592;SDS011;4334;49.982;8.398;2024-02-26T07:30:06;7.00;;;4.27;;
8592;SDS011;4334;49.982;8.398;2024-02-26T07:32:34;6.20;;;4.23;;
8592;SDS011;4334;49.982;8.398;2024-02-26T07:35:01;4.80;;;3.30;;
8592;SDS011;4334;49.982;8.398;2024-02-26T07:37:28;5.57;;;4.13;;
8592;SDS011;4334;49.982;8.398;2024-02-26T07:39:54;5.57;;;3.60;;
8592;SDS011;4334;49.982;8.398;2024-02-26T07:42:21;7.27;;;3.80;;
8592;SDS011;4334;49.982;8.398;2024-02-26T07:44:48;6.13;;;3.70;;
8592;SDS011;4334;49.982;8.398;2024-02-26T07:47:16;7.03;;;3.90;;
8592;SDS011;4334;49.982;8.398;2024-02-26T07:49:42;5.20;;;3.50;;
8592;SDS011;4334;49.982;8.398;2024-02-26T07:52:09;8.30;;;4.37;;
8592;SDS011;4334;49.982;8.398;2024-02-26T07:54:36;8.73;;;3.90;;
8592;SDS011;4334;49.982;8.398;2024-02-26T07:57:03;8.70;;;4.33;;
8592;SDS011;4334;49.982;8.398;2024-02-26T07:59:31;7.43;;;4.27;;
8592;SDS011;4334;49.982;8.398;2024-02-26T08:01:57;5.63;;;3.90;;
8592;SDS011;4334;49.982;8.398;2024-02-26T08:04:27;6.20;;;4.07;;
8592;SDS011;4334;49.982;8.398;2024-02-26T08:06:53;6.43;;;3.70;;
8592;SDS011;4334;49.982;8.398;2024-02-26T08:09:20;6.30;;;3.53;;
8592;SDS011;4334;49.982;8.398;2024-02-26T08:11:47;7.03;;;4.77;;
8592;SDS011;4334;49.982;8.398;2024-02-26T08:14:13;9.73;;;3.70;;
8592;SDS011;4334;49.982;8.398;2024-02-26T08:16:40;9.77;;;3.87;;
8592;SDS011;4334;49.982;8.398;2024-02-26T08:19:06;6.73;;;3.93;;
8592;SDS011;4334;49.982;8.398;2024-02-26T08:21:36;8.43;;;4.20;;
8592;SDS011;4334;49.982;8.398;2024-02-26T08:24:03;6.27;;;3.90;;
8592;SDS011;4334;49.982;8.398;2024-02-26T08:26:30;6.10;;;3.83;;
8592;SDS011;4334;49.982;8.398;2024-02-26T08:28:57;4.87;;;3.33;;
8592;SDS011;4334;49.982;8.398;2024-02-26T08:31:23;6.37;;;3.57;;
8592;SDS011;4334;49.982;8.398;2024-02-26T08:33:50;7.20;;;4.40;;
8592;SDS011;4334;49.982;8.398;2024-02-26T08:36:17;11.20;;;4.50;;
8592;SDS011;4334;49.982;8.398;2024-02-26T08:38:44;5.83;;;3.53;;
8592;SDS011;4334;49.982;8.398;2024-02-26T08:41:11;5.60;;;3.57;;
8592;SDS011;4334;49.982;8.398;2024-02-26T08:43:38;6.50;;;3.33;;
8592;SDS011;4334;49.982;8.398;2024-02-26T08:46:08;10.60;;;4.03;;
8592;SDS011;4334;49.982;8.398;2024-02-26T08:48:35;5.33;;;3.77;;
8592;SDS011;4334;49.982;8.398;2024-02-26T08:51:04;6.27;;;4.03;;
8592;SDS011;4334;49.982;8.398;2024-02-26T08:53:31;8.53;;;4.60;;
8592;SDS011;4334;49.982;8.398;2024-02-26T08:55:59;6.10;;;3.70;;
8592;SDS011;4334;49.982;8.398;2024-02-26T08:58:26;5.50;;;3.60;;
8592;SDS011;4334;49.982;8.398;2024-02-26T09:00:53;6.30;;;3.70;;
8592;SDS011;4334;49.982;8.398;2024-02-26T09:03:20;5.37;;;4.00;;
8592;SDS011;4334;49.982;8.398;2024-02-26T09:05:47;5.43;;;3.77;;
8592;SDS011;4334;49.982;8.398;2024-02-26T09:08:13;8.53;;;4.00;;
8592;SDS011;4334;49.982;8.398;2024-02-26T09:10:40;6.87;;;4.00;;
8592;SDS011;4334;49.982;8.398;2024-02-26T09:13:08;8.60;;;4.07;;
8592;SDS011;4334;49.982;8.398;2024-02-26T09:15:35;7.00;;;4.07;;
8592;SDS011;4334;49.982;8.398;2024-02-26T09:18:02;5.80;;;3.87;;
8592;SDS011;4334;49.982;8.398;2024-02-26T09:20:29;5.83;;;3.87;;
8592;SDS011;4334;49.982;8.398;2024-02-26T09:22:55;5.00;;;3.67;;
8592;SDS011;4334;49.982;8.398;2024-02-26T09:25:22;6.27;;;4.37;;
8592;SDS011;4334;49.982;8.398;2024-02-26T09:27:49;7.27;;;4.20;;
8592;SDS011;4334;49.982;8.398;2024-02-26T09:30:17;7.60;;;4.20;;
8592;SDS011;4334;49.982;8.398;2024-02-26T09:32:45;10.10;;;4.00;;
8592;SDS011;4334;49.982;8.398;2024-02-26T09:35:13;8.37;;;4.30;;
8592;SDS011;4334;49.982;8.398;2024-02-26T09:37:39;6.97;;;4.13;;
8592;SDS011;4334;49.982;8.398;2024-02-26T09:40:08;8.30;;;3.90;;
8592;SDS011;4334;49.982;8.398;2024-02-26T09:42:37;7.43;;;4.37;;
8592;SDS011;4334;49.982;8.398;2024-02-26T09:45:09;7.37;;;4.40;;
8592;SDS011;4334;49.982;8.398;2024-02-26T09:47:39;6.37;;;4.40;;
8592;SDS011;4334;49.982;8.398;2024-02-26T09:50:06;7.10;;;4.03;;
8592;SDS011;4334;49.982;8.398;2024-02-26T09:52:37;10.20;;;4.57;;
8592;SDS011;4334;49.982;8.398;2024-02-26T09:55:05;7.43;;;4.10;;
8592;SDS011;4334;49.982;8.398;2024-02-26T09:57:34;8.27;;;4.50;;
8592;SDS011;4334;49.982;8.398;2024-02-26T10:00:03;7.20;;;4.60;;
8592;SDS011;4334;49.982;8.398;2024-02-26T10:02:30;5.93;;;4.17;;
8592;SDS011;4334;49.982;8.398;2024-02-26T10:05:00;6.70;;;4.47;;
8592;SDS011;4334;49.982;8.398;2024-02-26T10:07:30;7.23;;;4.20;;
8592;SDS011;4334;49.982;8.398;2024-02-26T10:09:57;13.27;;;4.40;;
8592;SDS011;4334;49.982;8.398;2024-02-26T10:12:24;7.07;;;4.63;;
8592;SDS011;4334;49.982;8.398;2024-02-26T10:14:54;7.47;;;4.23;;
8592;SDS011;4334;49.982;8.398;2024-02-26T10:17:21;8.07;;;4.67;;
8592;SDS011;4334;49.982;8.398;2024-02-26T10:19:48;6.17;;;4.70;;
8592;SDS011;4334;49.982;8.398;2024-02-26T10:22:18;7.47;;;4.53;;
8592;SDS011;4334;49.982;8.398;2024-02-26T10:24:46;6.17;;;3.80;;
8592;SDS011;4334;49.982;8.398;2024-02-26T10:27:13;6.30;;;4.30;;
8592;SDS011;4334;49.982;8.398;2024-02-26T10:29:41;7.77;;;4.70;;
8592;SDS011;4334;49.982;8.398;2024-02-26T10:32:08;5.87;;;3.83;;
8592;SDS011;4334;49.982;8.398;2024-02-26T10:34:36;6.73;;;4.33;;
8592;SDS011;4334;49.982;8.398;2024-02-26T10:37:04;5.60;;;3.33;;
8592;SDS011;4334;49.982;8.398;2024-02-26T10:39:32;7.93;;;4.07;;
8592;SDS011;4334;49.982;8.398;2024-02-26T10:41:59;6.30;;;4.53;;
8592;SDS011;4334;49.982;8.398;2024-02-26T10:44:31;6.90;;;4.00;;
8592;SDS011;4334;49.982;8.398;2024-02-26T10:46:58;6.47;;;3.93;;
8592;SDS011;4334;49.982;8.398;2024-02-26T10:49:25;4.63;;;3.50;;
8592;SDS011;4334;49.982;8.398;2024-02-26T10:51:52;5.17;;;3.60;;
8592;SDS011;4334;49.982;8.398;2024-02-26T10:54:22;4.93;;;3.40;;
8592;SDS011;4334;49.982;8.398;2024-02-26T10:56:52;5.90;;;3.70;;
8592;SDS011;4334;49.982;8.398;2024-02-26T10:59:22;4.80;;;3.70;;
8592;SDS011;4334;49.982;8.398;2024-02-26T11:01:48;6.37;;;3.60;;
8592;SDS011;4334;49.982;8.398;2024-02-26T11:04:16;5.83;;;3.30;;
8592;SDS011;4334;49.982;8.398;2024-02-26T11:06:44;5.40;;;3.40;;
8592;SDS011;4334;49.982;8.398;2024-02-26T11:09:12;5.27;;;3.30;;
8592;SDS011;4334;49.982;8.398;2024-02-26T11:11:40;5.57;;;3.90;;
8592;SDS011;4334;49.982;8.398;2024-02-26T11:14:09;4.40;;;3.20;;
8592;SDS011;4334;49.982;8.398;2024-02-26T11:16:38;4.73;;;3.43;;
8592;SDS011;4334;49.982;8.398;2024-02-26T11:19:06;6.77;;;4.07;;
8592;SDS011;4334;49.982;8.398;2024-02-26T11:21:35;6.37;;;3.67;;
8592;SDS011;4334;49.982;8.398;2024-02-26T11:24:06;5.63;;;3.97;;
8592;SDS011;4334;49.982;8.398;2024-02-26T11:26:34;7.07;;;4.03;;
8592;SDS011;4334;49.982;8.398;2024-02-26T11:29:04;5.40;;;4.20;;
8592;SDS011;4334;49.982;8.398;2024-02-26T11:31:37;5.07;;;3.97;;
8592;SDS011;4334;49.982;8.398;2024-02-26T11:34:06;5.03;;;3.80;;
8592;SDS011;4334;49.982;8.398;2024-02-26T11:36:33;4.93;;;3.63;;
8592;SDS011;4334;49.982;8.398;2024-02-26T11:39:03;5.13;;;3.40;;
8592;SDS011;4334;49.982;8.398;2024-02-26T11:41:30;6.10;;;3.70;;
8592;SDS011;4334;49.982;8.398;2024-02-26T11:43:58;6.30;;;4.20;;
8592;SDS011;4334;49.982;8.398;2024-02-26T11:46:27;5.30;;;3.67;;
8592;SDS011;4334;49.982;8.398;2024-02-26T11:48:56;5.67;;;3.87;;
8592;SDS011;4334;49.982;8.398;2024-02-26T11:51:27;7.33;;;3.53;;
8592;SDS011;4334;49.982;8.398;2024-02-26T11:53:54;5.77;;;3.60;;
8592;SDS011;4334;49.982;8.398;2024-02-26T11:56:24;5.50;;;3.70;;
8592;SDS011;4334;49.982;8.398;2024-02-26T11:59:02;5.03;;;3.50;;
8592;SDS011;4334;49.982;8.398;2024-02-26T12:01:45;5.03;;;3.50;;
8592;SDS011;4334;49.982;8.398;2024-02-26T12:04:15;5.67;;;3.60;;
8592;SDS011;4334;49.982;8.398;2024-02-26T12:06:45;5.43;;;3.07;;
8592;SDS011;4334;49.982;8.398;2024-02-26T12:09:18;6.83;;;3.80;;
8592;SDS011;4334;49.982;8.398;2024-02-26T12:11:57;4.90;;;3.80;;
8592;SDS011;4334;49.982;8.398;2024-02-26T12:14:25;5.87;;;3.70;;
8592;SDS011;4334;49.982;8.398;2024-02-26T12:16:53;5.43;;;3.60;;
8592;SDS011;4334;49.982;8.398;2024-02-26T12:19:23;5.40;;;3.57;;
8592;SDS011;4334;49.982;8.398;2024-02-26T12:21:51;6.37;;;4.10;;
8592;SDS011;4334;49.982;8.398;2024-02-26T12:24:19;5.70;;;3.03;;
8592;SDS011;4334;49.982;8.398;2024-02-26T12:26:46;9.20;;;4.37;;
8592;SDS011;4334;49.982;8.398;2024-02-26T12:29:13;4.30;;;3.27;;
8592;SDS011;4334;49.982;8.398;2024-02-26T12:31:40;4.60;;;3.40;;
8592;SDS011;4334;49.982;8.398;2024-02-26T12:34:09;6.60;;;3.67;;
8592;SDS011;4334;49.982;8.398;2024-02-26T12:36:36;4.50;;;3.70;;
8592;SDS011;4334;49.982;8.398;2024-02-26T12:39:03;4.50;;;3.37;;
8592;SDS011;4334;49.982;8.398;2024-02-26T12:41:31;5.20;;;3.60;;
8592;SDS011;4334;49.982;8.398;2024-02-26T12:43:59;7.23;;;3.30;;
8592;SDS011;4334;49.982;8.398;2024-02-26T12:46:25;5.77;;;3.80;;
8592;SDS011;4334;49.982;8.398;2024-02-26T12:48:54;6.93;;;3.50;;
8592;SDS011;4334;49.982;8.398;2024-02-26T12:51:24;4.20;;;3.40;;
8592;SDS011;4334;49.982;8.398;2024-02-26T12:53:51;4.87;;;3.30;;
8592;SDS011;4334;49.982;8.398;2024-02-26T12:56:19;4.57;;;3.00;;
8592;SDS011;4334;49.982;8.398;2024-02-26T12:58:47;7.20;;;3.30;;
8592;SDS011;4334;49.982;8.398;2024-02-26T13:01:16;4.80;;;3.07;;
8592;SDS011;4334;49.982;8.398;2024-02-26T13:03:45;5.33;;;3.30;;
8592;SDS011;4334;49.982;8.398;2024-02-26T13:06:12;5.37;;;3.33;;
8592;SDS011;4334;49.982;8.398;2024-02-26T13:08:41;6.67;;;3.63;;
8592;SDS011;4334;49.982;8.398;2024-02-26T13:11:07;4.47;;;3.40;;
8592;SDS011;4334;49.982;8.398;2024-02-26T13:13:34;4.37;;;3.37;;
8592;SDS011;4334;49.982;8.398;2024-02-26T13:16:02;4.63;;;3.33;;
8592;SDS011;4334;49.982;8.398;2024-02-26T13:18:29;4.53;;;3.20;;
8592;SDS011;4334;49.982;8.398;2024-02-26T13:21:06;4.27;;;3.40;;
8592;SDS011;4334;49.982;8.398;2024-02-26T13:23:34;7.37;;;3.30;;
8592;SDS011;4334;49.982;8.398;2024-02-26T13:26:02;4.67;;;2.93;;
8592;SDS011;4334;49.982;8.398;2024-02-26T13:28:29;4.37;;;3.10;;
8592;SDS011;4334;49.982;8.398;2024-02-26T13:30:57;4.40;;;3.27;;
8592;SDS011;4334;49.982;8.398;2024-02-26T13:33:25;4.80;;;3.20;;
8592;SDS011;4334;49.982;8.398;2024-02-26T13:35:53;6.90;;;3.10;;
8592;SDS011;4334;49.982;8.398;2024-02-26T13:38:20;4.30;;;3.13;;
8592;SDS011;4334;49.982;8.398;2024-02-26T13:40:47;4.10;;;3.27;;
8592;SDS011;4334;49.982;8.398;2024-02-26T13:43:15;7.27;;;3.43;;
8592;SDS011;4334;49.982;8.398;2024-02-26T13:45:42;4.43;;;3.07;;
8592;SDS011;4334;49.982;8.398;2024-02-26T13:48:09;4.73;;;3.37;;
8592;SDS011;4334;49.982;8.398;2024-02-26T13:50:37;5.90;;;3.60;;
8592;SDS011;4334;49.982;8.398;2024-02-26T13:53:04;5.90;;;3.23;;
8592;SDS011;4334;49.982;8.398;2024-02-26T13:55:31;4.77;;;3.40;;
8592;SDS011;4334;49.982;8.398;2024-02-26T13:57:58;4.90;;;3.00;;
8592;SDS011;4334;49.982;8.398;2024-02-26T14:00:28;4.37;;;3.00;;
8592;SDS011;4334;49.982;8.398;2024-02-26T14:02:56;3.97;;;3.07;;
8592;SDS011;4334;49.982;8.398;2024-02-26T14:05:24;4.30;;;2.93;;
8592;SDS011;4334;49.982;8.398;2024-02-26T14:07:50;4.37;;;2.93;;
8592;SDS011;4334;49.982;8.398;2024-02-26T14:10:18;3.83;;;2.83;;
8592;SDS011;4334;49.982;8.398;2024-02-26T14:12:45;7.60;;;3.83;;
8592;SDS011;4334;49.982;8.398;2024-02-26T14:15:11;4.70;;;3.27;;
8592;SDS011;4334;49.982;8.398;2024-02-26T14:17:39;3.80;;;2.77;;
8592;SDS011;4334;49.982;8.398;2024-02-26T14:20:06;3.90;;;2.57;;
8592;SDS011;4334;49.982;8.398;2024-02-26T14:22:34;3.37;;;2.67;;
8592;SDS011;4334;49.982;8.398;2024-02-26T14:25:01;5.20;;;3.07;;
8592;SDS011;4334;49.982;8.398;2024-02-26T14:27:28;3.80;;;2.80;;
8592;SDS011;4334;49.982;8.398;2024-02-26T14:29:54;4.53;;;3.20;;
8592;SDS011;4334;49.982;8.398;2024-02-26T14:32:21;4.43;;;2.80;;
8592;SDS011;4334;49.982;8.398;2024-02-26T14:34:49;4.17;;;2.73;;
8592;SDS011;4334;49.982;8.398;2024-02-26T14:37:16;3.87;;;2.83;;
8592;SDS011;4334;49.982;8.398;2024-02-26T14:39:43;4.97;;;2.90;;
8592;SDS011;4334;49.982;8.398;2024-02-26T14:42:09;5.37;;;3.17;;
8592;SDS011;4334;49.982;8.398;2024-02-26T14:44:36;3.63;;;2.93;;
8592;SDS011;4334;49.982;8.398;2024-02-26T14:47:03;5.63;;;2.80;;
8592;SDS011;4334;49.982;8.398;2024-02-26T14:49:30;4.60;;;3.00;;
8592;SDS011;4334;49.982;8.398;2024-02-26T14:51:58;4.57;;;3.27;;
8592;SDS011;4334;49.982;8.398;2024-02-26T14:54:25;4.77;;;3.20;;
8592;SDS011;4334;49.982;8.398;2024-02-26T14:56:52;4.17;;;2.80;;
8592;SDS011;4334;49.982;8.398;2024-02-26T14:59:18;5.27;;;3.20;;
8592;SDS011;4334;49.982;8.398;2024-02-26T15:01:45;3.83;;;2.97;;
8592;SDS011;4334;49.982;8.398;2024-02-26T15:04:12;3.40;;;2.70;;
8592;SDS011;4334;49.982;8.398;2024-02-26T15:06:38;4.27;;;3.20;;
8592;SDS011;4334;49.982;8.398;2024-02-26T15:09:08;6.07;;;3.17;;
8592;SDS011;4334;49.982;8.398;2024-02-26T15:11:37;4.73;;;2.97;;
8592;SDS011;4334;49.982;8.398;2024-02-26T15:14:05;3.87;;;2.90;;
8592;SDS011;4334;49.982;8.398;2024-02-26T15:16:31;6.83;;;3.00;;